Current Weather

Hayward Exec

Hayward, California (KHWD)

Report from: Wednesday, April 24, 2024 11:54 AM PDT
Current time: Wednesday, April 24, 2024 1:05 PM PDT

Nearby weather – Weather history – Daily summaries
Weather forecast

Temperature17.8°C (64.0°F)
Dew point6.7°C (44.1°F)
Winds 8 kts (4.1 m/s, 9.2 mph) South-Southwest (200°)
Visibility10 mi. (16.1 km)
Clouds Ceiling: Broken clouds 4,300 ft. (1,311 m)
Overcast 5,000 ft. (1,524 m)
Altimeter30.08 in.Hg (1019 mB)
Relative humidity48 %
Density altitude265 ft. (81 m)
Sea-level pressure101.9 kPa (1019 mB, 30.10 in.Hg)
Remarks Automated weather observing station with precipitation discriminator
Flight conditions Visual Meteorological Conditions
Raw dataKHWD 241854Z 20008KT 10SM BKN043 OVC050 18/07 A3008 RMK AO2 SLP194 T01780067
An error has occurred. This application may no longer respond until reloaded. Reload 🗙